sensor_id;sensor_type;location;lat;lon;timestamp;pressure;altitude;pressure_sealevel;temperature;humidity
71151;BME280;59071;42.138;24.768;2022-09-03T00:01:03;99432.16;;;22.80;78.07
71151;BME280;59071;42.138;24.768;2022-09-03T00:03:39;99433.00;;;22.56;78.82
71151;BME280;59071;42.138;24.768;2022-09-03T00:06:24;99438.19;;;22.53;79.59
71151;BME280;59071;42.138;24.768;2022-09-03T00:09:22;99432.72;;;22.77;78.24
71151;BME280;59071;42.138;24.768;2022-09-03T00:12:08;99433.31;;;22.74;77.81
71151;BME280;59071;42.138;24.768;2022-09-03T00:14:41;99436.75;;;22.60;79.38
71151;BME280;59071;42.138;24.768;2022-09-03T00:17:14;99435.31;;;22.44;79.27
71151;BME280;59071;42.138;24.768;2022-09-03T00:20:02;99441.06;;;22.61;78.48
71151;BME280;59071;42.138;24.768;2022-09-03T00:22:33;99443.91;;;22.51;78.79
71151;BME280;59071;42.138;24.768;2022-09-03T00:25:03;99443.06;;;22.32;79.76
71151;BME280;59071;42.138;24.768;2022-09-03T00:27:32;99447.66;;;22.31;80.19
71151;BME280;59071;42.138;24.768;2022-09-03T00:30:10;99437.50;;;22.42;79.40
71151;BME280;59071;42.138;24.768;2022-09-03T00:33:00;99443.97;;;22.89;76.74
71151;BME280;59071;42.138;24.768;2022-09-03T00:35:34;99441.91;;;22.38;79.49
71151;BME280;59071;42.138;24.768;2022-09-03T00:38:02;99436.44;;;22.43;79.03
71151;BME280;59071;42.138;24.768;2022-09-03T00:45:58;99433.34;;;22.50;78.43
71151;BME280;59071;42.138;24.768;2022-09-03T00:48:35;99427.31;;;22.34;79.25
71151;BME280;59071;42.138;24.768;2022-09-03T00:54:17;99435.16;;;22.78;77.14
71151;BME280;59071;42.138;24.768;2022-09-03T00:56:47;99434.16;;;22.50;78.46
71151;BME280;59071;42.138;24.768;2022-09-03T00:59:38;99431.16;;;22.52;78.17
71151;BME280;59071;42.138;24.768;2022-09-03T01:02:15;99438.13;;;23.20;74.56
71151;BME280;59071;42.138;24.768;2022-09-03T01:05:10;99435.84;;;23.08;74.94
71151;BME280;59071;42.138;24.768;2022-09-03T01:08:19;99437.06;;;22.78;76.36
71151;BME280;59071;42.138;24.768;2022-09-03T01:11:01;99445.78;;;22.94;75.42
71151;BME280;59071;42.138;24.768;2022-09-03T01:13:43;99435.94;;;22.79;75.47
71151;BME280;59071;42.138;24.768;2022-09-03T01:16:23;99439.50;;;22.79;75.53
71151;BME280;59071;42.138;24.768;2022-09-03T01:24:30;99437.34;;;22.76;75.04
71151;BME280;59071;42.138;24.768;2022-09-03T01:32:29;99433.81;;;22.33;77.39
71151;BME280;59071;42.138;24.768;2022-09-03T01:37:45;99442.06;;;21.64;80.22
71151;BME280;59071;42.138;24.768;2022-09-03T01:48:49;99432.19;;;21.78;79.42
71151;BME280;59071;42.138;24.768;2022-09-03T01:51:21;99431.56;;;21.57;79.82
71151;BME280;59071;42.138;24.768;2022-09-03T01:59:50;99422.97;;;21.50;80.17
71151;BME280;59071;42.138;24.768;2022-09-03T02:02:21;99427.06;;;21.42;79.84
71151;BME280;59071;42.138;24.768;2022-09-03T02:05:04;99426.13;;;21.23;80.87
71151;BME280;59071;42.138;24.768;2022-09-03T02:08:18;99419.78;;;21.38;80.15
71151;BME280;59071;42.138;24.768;2022-09-03T02:10:21;99432.94;;;21.15;80.59
71151;BME280;59071;42.138;24.768;2022-09-03T02:12:56;99430.31;;;21.39;80.06
71151;BME280;59071;42.138;24.768;2022-09-03T02:15:24;99434.44;;;21.32;79.89
71151;BME280;59071;42.138;24.768;2022-09-03T02:17:53;99436.13;;;21.22;79.61
71151;BME280;59071;42.138;24.768;2022-09-03T02:20:22;99437.34;;;21.45;78.70
71151;BME280;59071;42.138;24.768;2022-09-03T02:22:51;99443.88;;;21.34;79.15
71151;BME280;59071;42.138;24.768;2022-09-03T02:25:20;99444.34;;;21.52;78.07
71151;BME280;59071;42.138;24.768;2022-09-03T02:27:48;99452.50;;;21.46;78.69
71151;BME280;59071;42.138;24.768;2022-09-03T02:30:14;99446.75;;;21.53;78.18
71151;BME280;59071;42.138;24.768;2022-09-03T02:32:41;99450.31;;;21.48;78.38
71151;BME280;59071;42.138;24.768;2022-09-03T02:35:07;99453.00;;;21.54;77.99
71151;BME280;59071;42.138;24.768;2022-09-03T02:37:33;99456.81;;;21.47;78.13
71151;BME280;59071;42.138;24.768;2022-09-03T02:39:59;99463.03;;;21.43;78.64
71151;BME280;59071;42.138;24.768;2022-09-03T02:42:24;99446.72;;;21.58;76.51
71151;BME280;59071;42.138;24.768;2022-09-03T02:44:54;99449.34;;;21.29;78.05
71151;BME280;59071;42.138;24.768;2022-09-03T02:47:22;99469.09;;;21.29;78.60
71151;BME280;59071;42.138;24.768;2022-09-03T02:49:49;99460.50;;;21.62;76.40
71151;BME280;59071;42.138;24.768;2022-09-03T02:52:15;99450.03;;;21.50;76.33
71151;BME280;59071;42.138;24.768;2022-09-03T02:54:41;99457.88;;;21.52;76.34
71151;BME280;59071;42.138;24.768;2022-09-03T02:57:08;99465.41;;;21.55;76.00
71151;BME280;59071;42.138;24.768;2022-09-03T02:59:34;99464.34;;;21.56;76.17
71151;BME280;59071;42.138;24.768;2022-09-03T03:01:59;99469.78;;;21.51;76.37
71151;BME280;59071;42.138;24.768;2022-09-03T03:04:25;99468.75;;;21.46;76.34
71151;BME280;59071;42.138;24.768;2022-09-03T03:06:51;99463.31;;;21.46;76.50
71151;BME280;59071;42.138;24.768;2022-09-03T03:09:17;99454.09;;;21.82;74.87
71151;BME280;59071;42.138;24.768;2022-09-03T03:11:42;99465.06;;;21.96;74.09
71151;BME280;59071;42.138;24.768;2022-09-03T03:14:08;99463.31;;;21.81;74.58
71151;BME280;59071;42.138;24.768;2022-09-03T03:16:34;99467.06;;;21.85;74.39
71151;BME280;59071;42.138;24.768;2022-09-03T03:19:00;99457.56;;;22.17;72.93
71151;BME280;59071;42.138;24.768;2022-09-03T03:21:25;99457.78;;;21.91;73.11
71151;BME280;59071;42.138;24.768;2022-09-03T03:23:51;99454.56;;;21.89;73.00
71151;BME280;59071;42.138;24.768;2022-09-03T03:26:18;99456.00;;;21.47;75.07
71151;BME280;59071;42.138;24.768;2022-09-03T03:28:45;99452.78;;;21.40;75.41
71151;BME280;59071;42.138;24.768;2022-09-03T03:31:18;99456.16;;;21.21;76.48
71151;BME280;59071;42.138;24.768;2022-09-03T03:33:53;99454.53;;;21.65;74.36
71151;BME280;59071;42.138;24.768;2022-09-03T03:36:20;99448.22;;;21.75;73.48
71151;BME280;59071;42.138;24.768;2022-09-03T03:38:46;99463.50;;;21.90;73.01
71151;BME280;59071;42.138;24.768;2022-09-03T03:41:22;99455.38;;;21.90;72.97
71151;BME280;59071;42.138;24.768;2022-09-03T03:43:55;99451.59;;;22.15;71.94
71151;BME280;59071;42.138;24.768;2022-09-03T03:46:23;99453.44;;;22.19;71.43
71151;BME280;59071;42.138;24.768;2022-09-03T03:48:50;99461.06;;;22.17;71.28
71151;BME280;59071;42.138;24.768;2022-09-03T03:51:16;99462.31;;;22.01;71.96
71151;BME280;59071;42.138;24.768;2022-09-03T03:53:42;99457.81;;;21.57;73.78
71151;BME280;59071;42.138;24.768;2022-09-03T03:56:10;99461.44;;;21.02;76.45
71151;BME280;59071;42.138;24.768;2022-09-03T03:58:36;99455.75;;;21.04;75.98
71151;BME280;59071;42.138;24.768;2022-09-03T04:01:14;99469.25;;;21.48;74.64
71151;BME280;59071;42.138;24.768;2022-09-03T04:03:40;99462.13;;;21.63;73.40
71151;BME280;59071;42.138;24.768;2022-09-03T04:06:07;99459.59;;;21.32;75.20
71151;BME280;59071;42.138;24.768;2022-09-03T04:08:34;99466.53;;;21.54;73.58
71151;BME280;59071;42.138;24.768;2022-09-03T04:11:02;99461.28;;;21.62;73.64
71151;BME280;59071;42.138;24.768;2022-09-03T04:13:32;99468.31;;;21.69;73.31
71151;BME280;59071;42.138;24.768;2022-09-03T04:18:28;99468.38;;;21.58;73.52
71151;BME280;59071;42.138;24.768;2022-09-03T04:21:01;99472.41;;;21.61;73.85
71151;BME280;59071;42.138;24.768;2022-09-03T04:23:38;99473.03;;;21.47;73.63
71151;BME280;59071;42.138;24.768;2022-09-03T04:26:04;99470.81;;;21.60;72.79
71151;BME280;59071;42.138;24.768;2022-09-03T04:28:31;99470.34;;;21.82;72.15
71151;BME280;59071;42.138;24.768;2022-09-03T04:31:05;99466.97;;;21.61;72.51
71151;BME280;59071;42.138;24.768;2022-09-03T04:33:31;99473.06;;;21.82;72.59
71151;BME280;59071;42.138;24.768;2022-09-03T04:36:21;99470.66;;;21.75;72.42
71151;BME280;59071;42.138;24.768;2022-09-03T04:38:48;99475.84;;;21.72;71.98
71151;BME280;59071;42.138;24.768;2022-09-03T04:41:17;99480.03;;;21.88;71.27
71151;BME280;59071;42.138;24.768;2022-09-03T04:43:43;99473.66;;;21.74;71.34
71151;BME280;59071;42.138;24.768;2022-09-03T04:46:11;99485.34;;;21.98;70.64
71151;BME280;59071;42.138;24.768;2022-09-03T04:48:37;99483.38;;;22.09;70.54
71151;BME280;59071;42.138;24.768;2022-09-03T04:51:08;99484.56;;;22.51;68.31
71151;BME280;59071;42.138;24.768;2022-09-03T04:53:35;99491.69;;;22.90;67.36
71151;BME280;59071;42.138;24.768;2022-09-03T04:56:02;99497.97;;;23.10;66.23
71151;BME280;59071;42.138;24.768;2022-09-03T04:58:28;99508.63;;;23.06;66.51
71151;BME280;59071;42.138;24.768;2022-09-03T05:00:53;99498.59;;;23.01;66.58
71151;BME280;59071;42.138;24.768;2022-09-03T05:03:19;99506.63;;;23.12;66.37
71151;BME280;59071;42.138;24.768;2022-09-03T05:05:54;99507.22;;;23.09;66.12
71151;BME280;59071;42.138;24.768;2022-09-03T05:08:20;99509.41;;;23.26;65.91
71151;BME280;59071;42.138;24.768;2022-09-03T05:10:46;99505.97;;;22.96;66.79
71151;BME280;59071;42.138;24.768;2022-09-03T05:13:12;99512.13;;;23.26;65.48
71151;BME280;59071;42.138;24.768;2022-09-03T05:15:37;99521.69;;;23.42;65.22
71151;BME280;59071;42.138;24.768;2022-09-03T05:18:02;99512.13;;;23.83;64.04
71151;BME280;59071;42.138;24.768;2022-09-03T05:20:29;99519.22;;;24.11;62.72
71151;BME280;59071;42.138;24.768;2022-09-03T05:22:55;99522.25;;;24.10;62.61
71151;BME280;59071;42.138;24.768;2022-09-03T05:25:22;99517.47;;;24.48;61.90
71151;BME280;59071;42.138;24.768;2022-09-03T05:27:47;99525.34;;;24.91;60.51
71151;BME280;59071;42.138;24.768;2022-09-03T05:30:13;99525.13;;;25.15;59.76
71151;BME280;59071;42.138;24.768;2022-09-03T05:32:38;99489.03;;;25.46;57.91
71151;BME280;59071;42.138;24.768;2022-09-03T05:35:05;99530.16;;;25.81;57.50
71151;BME280;59071;42.138;24.768;2022-09-03T05:37:31;99527.84;;;26.20;56.44
71151;BME280;59071;42.138;24.768;2022-09-03T05:39:57;99534.63;;;26.31;56.03
71151;BME280;59071;42.138;24.768;2022-09-03T05:42:22;99534.44;;;26.19;56.10
71151;BME280;59071;42.138;24.768;2022-09-03T05:44:47;99534.88;;;25.89;56.21
71151;BME280;59071;42.138;24.768;2022-09-03T05:47:14;99526.69;;;26.12;56.64
71151;BME280;59071;42.138;24.768;2022-09-03T05:49:40;99536.69;;;26.25;55.33
71151;BME280;59071;42.138;24.768;2022-09-03T05:52:05;99543.03;;;26.12;54.58
71151;BME280;59071;42.138;24.768;2022-09-03T05:54:31;99541.25;;;25.85;56.28
71151;BME280;59071;42.138;24.768;2022-09-03T05:56:56;99528.75;;;26.38;54.86
71151;BME280;59071;42.138;24.768;2022-09-03T05:59:22;99541.63;;;26.77;53.53
71151;BME280;59071;42.138;24.768;2022-09-03T06:01:47;99531.94;;;26.62;53.89
71151;BME280;59071;42.138;24.768;2022-09-03T06:04:14;99535.22;;;26.99;52.85
71151;BME280;59071;42.138;24.768;2022-09-03T06:06:45;99523.56;;;27.51;51.72
71151;BME280;59071;42.138;24.768;2022-09-03T06:09:13;99549.72;;;28.22;50.45
71151;BME280;59071;42.138;24.768;2022-09-03T06:11:41;99548.03;;;28.85;48.68
71151;BME280;59071;42.138;24.768;2022-09-03T06:14:08;99554.72;;;28.67;48.45
71151;BME280;59071;42.138;24.768;2022-09-03T06:16:36;99542.00;;;28.71;48.53
71151;BME280;59071;42.138;24.768;2022-09-03T06:19:02;99548.03;;;28.85;48.13
71151;BME280;59071;42.138;24.768;2022-09-03T06:21:31;99551.00;;;28.72;48.58
71151;BME280;59071;42.138;24.768;2022-09-03T06:23:57;99549.47;;;29.42;46.92
71151;BME280;59071;42.138;24.768;2022-09-03T06:26:24;99541.19;;;29.30;46.67
71151;BME280;59071;42.138;24.768;2022-09-03T06:28:50;99542.13;;;29.13;47.36
71151;BME280;59071;42.138;24.768;2022-09-03T06:31:19;99546.19;;;29.28;46.89
71151;BME280;59071;42.138;24.768;2022-09-03T06:33:46;99548.22;;;29.40;47.00
71151;BME280;59071;42.138;24.768;2022-09-03T06:36:16;99545.22;;;29.66;45.95
71151;BME280;59071;42.138;24.768;2022-09-03T06:38:43;99538.13;;;28.72;47.50
71151;BME280;59071;42.138;24.768;2022-09-03T06:43:37;99551.00;;;28.72;48.14
71151;BME280;59071;42.138;24.768;2022-09-03T06:46:06;99552.88;;;28.89;47.92
71151;BME280;59071;42.138;24.768;2022-09-03T06:48:34;99556.69;;;28.96;47.71
71151;BME280;59071;42.138;24.768;2022-09-03T06:51:02;99555.69;;;29.31;46.62
71151;BME280;59071;42.138;24.768;2022-09-03T06:53:30;99562.41;;;28.35;48.59
71151;BME280;59071;42.138;24.768;2022-09-03T06:55:59;99546.84;;;27.83;49.69
71151;BME280;59071;42.138;24.768;2022-09-03T06:58:36;99553.09;;;28.19;48.96
71151;BME280;59071;42.138;24.768;2022-09-03T07:01:08;99545.59;;;27.63;50.61
71151;BME280;59071;42.138;24.768;2022-09-03T07:03:35;99548.50;;;27.58;50.36
71151;BME280;59071;42.138;24.768;2022-09-03T07:06:02;99553.47;;;28.08;50.30
71151;BME280;59071;42.138;24.768;2022-09-03T07:08:29;99550.31;;;28.45;49.11
71151;BME280;59071;42.138;24.768;2022-09-03T07:11:04;99552.19;;;28.92;48.37
71151;BME280;59071;42.138;24.768;2022-09-03T07:13:33;99557.63;;;29.51;47.22
71151;BME280;59071;42.138;24.768;2022-09-03T07:18:36;99553.75;;;29.73;46.15
71151;BME280;59071;42.138;24.768;2022-09-03T07:21:07;99555.06;;;28.95;47.19
71151;BME280;59071;42.138;24.768;2022-09-03T07:23:34;99560.84;;;29.02;47.52
71151;BME280;59071;42.138;24.768;2022-09-03T07:26:01;99567.03;;;29.41;46.98
71151;BME280;59071;42.138;24.768;2022-09-03T07:28:28;99565.66;;;30.23;45.31
71151;BME280;59071;42.138;24.768;2022-09-03T07:31:01;99570.28;;;30.31;44.85
71151;BME280;59071;42.138;24.768;2022-09-03T07:33:30;99573.44;;;30.67;43.94
71151;BME280;59071;42.138;24.768;2022-09-03T07:35:55;99565.66;;;30.81;43.73
71151;BME280;59071;42.138;24.768;2022-09-03T07:38:26;99564.78;;;31.02;43.26
71151;BME280;59071;42.138;24.768;2022-09-03T07:40:57;99569.19;;;31.18;43.17
71151;BME280;59071;42.138;24.768;2022-09-03T07:43:25;99569.31;;;30.97;42.41
71151;BME280;59071;42.138;24.768;2022-09-03T07:45:50;99573.47;;;30.91;42.31
71151;BME280;59071;42.138;24.768;2022-09-03T07:48:16;99566.69;;;29.85;45.00
71151;BME280;59071;42.138;24.768;2022-09-03T07:50:42;99577.28;;;30.08;44.00
71151;BME280;59071;42.138;24.768;2022-09-03T07:53:07;99554.91;;;30.76;42.52
71151;BME280;59071;42.138;24.768;2022-09-03T07:55:33;99565.06;;;30.88;42.06
71151;BME280;59071;42.138;24.768;2022-09-03T07:57:58;99571.84;;;30.78;40.83
71151;BME280;59071;42.138;24.768;2022-09-03T08:00:24;99573.72;;;30.40;41.77
71151;BME280;59071;42.138;24.768;2022-09-03T08:02:53;99566.00;;;30.92;40.71
71151;BME280;59071;42.138;24.768;2022-09-03T08:05:18;99568.84;;;30.13;42.90
71151;BME280;59071;42.138;24.768;2022-09-03T08:07:47;99559.56;;;30.63;42.25
71151;BME280;59071;42.138;24.768;2022-09-03T08:10:14;99559.47;;;30.72;42.89
71151;BME280;59071;42.138;24.768;2022-09-03T08:12:40;99561.50;;;31.36;41.27
71151;BME280;59071;42.138;24.768;2022-09-03T08:15:06;99552.25;;;31.69;41.32
71151;BME280;59071;42.138;24.768;2022-09-03T08:17:32;99557.25;;;31.51;40.87
71151;BME280;59071;42.138;24.768;2022-09-03T08:19:58;99558.53;;;31.70;40.80
71151;BME280;59071;42.138;24.768;2022-09-03T08:22:24;99547.50;;;31.54;41.32
71151;BME280;59071;42.138;24.768;2022-09-03T08:24:50;99548.84;;;31.60;40.42
71151;BME280;59071;42.138;24.768;2022-09-03T08:27:18;99535.25;;;31.39;40.12
71151;BME280;59071;42.138;24.768;2022-09-03T08:29:50;99550.00;;;31.59;39.92
71151;BME280;59071;42.138;24.768;2022-09-03T08:32:15;99553.97;;;31.21;40.59
71151;BME280;59071;42.138;24.768;2022-09-03T08:34:41;99551.03;;;30.19;42.81
71151;BME280;59071;42.138;24.768;2022-09-03T08:37:06;99557.84;;;30.34;43.05
71151;BME280;59071;42.138;24.768;2022-09-03T08:39:34;99540.59;;;30.58;42.34
71151;BME280;59071;42.138;24.768;2022-09-03T08:42:20;99544.63;;;31.50;40.80
71151;BME280;59071;42.138;24.768;2022-09-03T08:44:55;99542.53;;;31.60;40.29
71151;BME280;59071;42.138;24.768;2022-09-03T08:47:29;99538.00;;;31.80;39.11
71151;BME280;59071;42.138;24.768;2022-09-03T08:50:20;99546.28;;;31.67;39.54
71151;BME280;59071;42.138;24.768;2022-09-03T08:52:49;99542.00;;;31.54;39.27
71151;BME280;59071;42.138;24.768;2022-09-03T08:57:49;99537.56;;;32.38;38.16
71151;BME280;59071;42.138;24.768;2022-09-03T09:00:18;99528.69;;;32.12;38.44
71151;BME280;59071;42.138;24.768;2022-09-03T09:02:55;99521.09;;;31.65;39.54
71151;BME280;59071;42.138;24.768;2022-09-03T09:08:47;99527.25;;;31.74;38.42
71151;BME280;59071;42.138;24.768;2022-09-03T09:11:01;99527.41;;;32.10;38.47
71151;BME280;59071;42.138;24.768;2022-09-03T09:16:37;99539.16;;;32.07;38.64
71151;BME280;59071;42.138;24.768;2022-09-03T09:22:00;99537.06;;;30.94;40.41
71151;BME280;59071;42.138;24.768;2022-09-03T09:24:34;99542.22;;;31.77;38.94
71151;BME280;59071;42.138;24.768;2022-09-03T09:27:03;99534.44;;;31.51;39.72
71151;BME280;59071;42.138;24.768;2022-09-03T09:29:39;99534.09;;;31.81;38.72
71151;BME280;59071;42.138;24.768;2022-09-03T09:32:08;99536.59;;;31.58;39.18
71151;BME280;59071;42.138;24.768;2022-09-03T09:34:38;99542.00;;;31.98;38.05
71151;BME280;59071;42.138;24.768;2022-09-03T09:37:08;99533.19;;;31.76;38.63
71151;BME280;59071;42.138;24.768;2022-09-03T09:39:35;99539.25;;;31.42;39.62
71151;BME280;59071;42.138;24.768;2022-09-03T09:42:06;99534.03;;;31.93;38.08
71151;BME280;59071;42.138;24.768;2022-09-03T09:44:40;99528.50;;;32.21;37.31
71151;BME280;59071;42.138;24.768;2022-09-03T09:47:10;99540.94;;;32.63;37.37
71151;BME280;59071;42.138;24.768;2022-09-03T09:49:58;99533.94;;;31.89;38.85
71151;BME280;59071;42.138;24.768;2022-09-03T09:52:29;99533.34;;;32.12;38.45
71151;BME280;59071;42.138;24.768;2022-09-03T09:55:10;99531.50;;;32.48;36.95
71151;BME280;59071;42.138;24.768;2022-09-03T09:57:39;99536.88;;;32.41;37.46
71151;BME280;59071;42.138;24.768;2022-09-03T10:00:07;99533.38;;;32.44;37.34
71151;BME280;59071;42.138;24.768;2022-09-03T10:02:35;99530.72;;;32.31;37.26
71151;BME280;59071;42.138;24.768;2022-09-03T10:05:23;99531.09;;;31.86;38.19
71151;BME280;59071;42.138;24.768;2022-09-03T10:07:59;99537.56;;;31.49;38.74
71151;BME280;59071;42.138;24.768;2022-09-03T10:10:26;99520.47;;;31.72;39.10
71151;BME280;59071;42.138;24.768;2022-09-03T10:13:18;99524.75;;;32.13;38.64
71151;BME280;59071;42.138;24.768;2022-09-03T10:16:09;99522.63;;;32.23;38.05
71151;BME280;59071;42.138;24.768;2022-09-03T10:18:44;99515.63;;;32.25;38.00
71151;BME280;59071;42.138;24.768;2022-09-03T10:21:17;99508.41;;;32.37;38.21
71151;BME280;59071;42.138;24.768;2022-09-03T10:23:56;99503.56;;;32.30;38.33
71151;BME280;59071;42.138;24.768;2022-09-03T10:26:23;99501.94;;;32.29;37.40
71151;BME280;59071;42.138;24.768;2022-09-03T10:29:03;99503.09;;;32.28;37.68
71151;BME280;59071;42.138;24.768;2022-09-03T10:42:36;99505.50;;;32.61;37.42
71151;BME280;59071;42.138;24.768;2022-09-03T10:50:54;99498.59;;;32.67;38.01
71151;BME280;59071;42.138;24.768;2022-09-03T10:56:31;99501.31;;;33.03;36.39
71151;BME280;59071;42.138;24.768;2022-09-03T10:59:18;99505.66;;;32.68;36.81
71151;BME280;59071;42.138;24.768;2022-09-03T11:01:55;99502.84;;;33.00;36.68
71151;BME280;59071;42.138;24.768;2022-09-03T11:07:16;99492.94;;;33.54;36.23
71151;BME280;59071;42.138;24.768;2022-09-03T11:09:56;99499.75;;;33.60;35.47
71151;BME280;59071;42.138;24.768;2022-09-03T11:12:31;99504.66;;;33.47;36.12
71151;BME280;59071;42.138;24.768;2022-09-03T11:15:14;99498.72;;;33.10;35.23
71151;BME280;59071;42.138;24.768;2022-09-03T11:17:48;99507.81;;;33.10;35.45
71151;BME280;59071;42.138;24.768;2022-09-03T11:20:20;99501.81;;;33.63;35.48
71151;BME280;59071;42.138;24.768;2022-09-03T11:22:49;99506.31;;;32.97;36.38
71151;BME280;59071;42.138;24.768;2022-09-03T11:25:18;99499.34;;;33.39;36.35
71151;BME280;59071;42.138;24.768;2022-09-03T11:28:24;99493.41;;;33.37;35.70
71151;BME280;59071;42.138;24.768;2022-09-03T11:31:14;99486.06;;;33.25;35.61
71151;BME280;59071;42.138;24.768;2022-09-03T11:33:57;99492.00;;;33.66;34.15
71151;BME280;59071;42.138;24.768;2022-09-03T11:36:31;99494.41;;;33.48;35.67
71151;BME280;59071;42.138;24.768;2022-09-03T11:38:57;99485.28;;;33.63;34.96
71151;BME280;59071;42.138;24.768;2022-09-03T11:41:29;99489.91;;;33.79;34.75
71151;BME280;59071;42.138;24.768;2022-09-03T11:44:10;99478.44;;;34.00;33.89
71151;BME280;59071;42.138;24.768;2022-09-03T11:46:52;99486.66;;;33.96;34.60
71151;BME280;59071;42.138;24.768;2022-09-03T11:49:29;99482.19;;;33.49;34.29
71151;BME280;59071;42.138;24.768;2022-09-03T11:52:04;99484.63;;;33.11;35.53
71151;BME280;59071;42.138;24.768;2022-09-03T11:54:41;99473.66;;;33.35;35.20
71151;BME280;59071;42.138;24.768;2022-09-03T11:57:25;99473.59;;;33.11;34.90
71151;BME280;59071;42.138;24.768;2022-09-03T11:59:52;99484.88;;;32.71;35.38
71151;BME280;59071;42.138;24.768;2022-09-03T12:02:27;99485.56;;;33.03;35.24
71151;BME280;59071;42.138;24.768;2022-09-03T12:05:35;99475.56;;;32.95;35.26
71151;BME280;59071;42.138;24.768;2022-09-03T12:08:25;99472.44;;;33.32;34.40
71151;BME280;59071;42.138;24.768;2022-09-03T12:19:44;99468.88;;;33.71;33.82
71151;BME280;59071;42.138;24.768;2022-09-03T12:22:13;99472.06;;;33.53;33.71
71151;BME280;59071;42.138;24.768;2022-09-03T12:24:39;99469.28;;;33.34;34.64
71151;BME280;59071;42.138;24.768;2022-09-03T12:27:10;99462.38;;;33.82;34.35
71151;BME280;59071;42.138;24.768;2022-09-03T12:29:36;99468.75;;;33.86;33.89
71151;BME280;59071;42.138;24.768;2022-09-03T12:32:08;99472.91;;;32.99;33.56
71151;BME280;59071;42.138;24.768;2022-09-03T12:34:35;99468.47;;;32.94;33.97
71151;BME280;59071;42.138;24.768;2022-09-03T12:37:01;99471.47;;;32.69;34.16
71151;BME280;59071;42.138;24.768;2022-09-03T12:39:28;99475.19;;;32.61;34.24
71151;BME280;59071;42.138;24.768;2022-09-03T12:44:37;99456.09;;;33.43;32.87
71151;BME280;59071;42.138;24.768;2022-09-03T12:47:14;99464.00;;;33.87;32.24
71151;BME280;59071;42.138;24.768;2022-09-03T12:49:45;99460.88;;;34.35;32.02
71151;BME280;59071;42.138;24.768;2022-09-03T12:52:31;99467.31;;;34.16;31.23
71151;BME280;59071;42.138;24.768;2022-09-03T12:55:52;99454.72;;;34.18;30.95
71151;BME280;59071;42.138;24.768;2022-09-03T13:05:55;99440.59;;;33.77;31.23
71151;BME280;59071;42.138;24.768;2022-09-03T13:08:26;99455.00;;;33.47;31.93
71151;BME280;59071;42.138;24.768;2022-09-03T13:10:55;99454.59;;;33.88;31.99
71151;BME280;59071;42.138;24.768;2022-09-03T13:13:29;99449.47;;;34.36;30.08
71151;BME280;59071;42.138;24.768;2022-09-03T13:29:38;99450.13;;;34.03;30.69
71151;BME280;59071;42.138;24.768;2022-09-03T13:32:31;99455.31;;;33.42;30.85
71151;BME280;59071;42.138;24.768;2022-09-03T13:35:25;99451.56;;;33.54;30.48
71151;BME280;59071;42.138;24.768;2022-09-03T13:37:55;99465.97;;;33.63;31.00
71151;BME280;59071;42.138;24.768;2022-09-03T13:45:49;99461.72;;;32.40;32.83
71151;BME280;59071;42.138;24.768;2022-09-03T13:48:23;99465.44;;;32.48;33.48
71151;BME280;59071;42.138;24.768;2022-09-03T13:51:26;99460.13;;;32.23;32.98
71151;BME280;59071;42.138;24.768;2022-09-03T13:54:23;99465.19;;;32.88;32.78
71151;BME280;59071;42.138;24.768;2022-09-03T13:59:52;99456.72;;;32.46;33.15
71151;BME280;59071;42.138;24.768;2022-09-03T14:10:51;99465.97;;;32.38;33.13
71151;BME280;59071;42.138;24.768;2022-09-03T14:24:39;99464.28;;;32.65;32.73
71151;BME280;59071;42.138;24.768;2022-09-03T14:27:00;99470.59;;;32.65;32.77
71151;BME280;59071;42.138;24.768;2022-09-03T14:29:32;99471.25;;;31.67;33.66
71151;BME280;59071;42.138;24.768;2022-09-03T14:32:07;99479.88;;;31.81;33.99
71151;BME280;59071;42.138;24.768;2022-09-03T14:35:03;99478.41;;;31.43;34.70
71151;BME280;59071;42.138;24.768;2022-09-03T14:45:57;99487.97;;;30.93;35.90
71151;BME280;59071;42.138;24.768;2022-09-03T14:48:48;99492.19;;;31.03;36.31
71151;BME280;59071;42.138;24.768;2022-09-03T14:59:48;99482.38;;;30.65;36.42
71151;BME280;59071;42.138;24.768;2022-09-03T15:02:45;99487.06;;;30.52;36.51
71151;BME280;59071;42.138;24.768;2022-09-03T15:05:40;99486.94;;;30.60;36.60
71151;BME280;59071;42.138;24.768;2022-09-03T15:08:08;99493.66;;;30.88;36.10
71151;BME280;59071;42.138;24.768;2022-09-03T15:20:59;99499.50;;;30.86;36.39
71151;BME280;59071;42.138;24.768;2022-09-03T15:26:45;99503.66;;;30.68;36.79
71151;BME280;59071;42.138;24.768;2022-09-03T15:29:28;99497.00;;;30.44;36.83
71151;BME280;59071;42.138;24.768;2022-09-03T15:37:35;99503.88;;;30.50;37.39
71151;BME280;59071;42.138;24.768;2022-09-03T15:42:46;99513.72;;;30.51;37.36
71151;BME280;59071;42.138;24.768;2022-09-03T15:45:31;99519.34;;;29.97;37.59
71151;BME280;59071;42.138;24.768;2022-09-03T15:48:12;99520.22;;;29.89;37.65
71151;BME280;59071;42.138;24.768;2022-09-03T15:53:36;99526.56;;;30.14;37.12
71151;BME280;59071;42.138;24.768;2022-09-03T15:59:11;99521.72;;;29.44;37.08
71151;BME280;59071;42.138;24.768;2022-09-03T16:02:05;99523.75;;;29.68;37.13
71151;BME280;59071;42.138;24.768;2022-09-03T16:04:49;99523.28;;;29.87;36.64
71151;BME280;59071;42.138;24.768;2022-09-03T16:10:12;99520.34;;;29.92;37.17
71151;BME280;59071;42.138;24.768;2022-09-03T16:13:02;99526.47;;;30.10;36.97
71151;BME280;59071;42.138;24.768;2022-09-03T16:15:39;99526.25;;;30.28;36.34
71151;BME280;59071;42.138;24.768;2022-09-03T16:24:02;99523.88;;;29.72;37.57
71151;BME280;59071;42.138;24.768;2022-09-03T16:26:41;99522.22;;;29.79;36.85
71151;BME280;59071;42.138;24.768;2022-09-03T16:29:13;99523.28;;;29.87;36.69